Time;durP1;ratioP1;P1;durP2;ratioP2;P2;SDS_P1;SDS_P2;PMS_P1;PMS_P2;Temp;Humidity;BMP_temperature;BMP_pressure;BME280_temperature;BME280_humidity;BME280_pressure;Samples;Min_cycle;Max_cycle;Signal;HPM_P1;HPM_P2
2022/01/21 00:01:02;;;;;;;42.63;20.48;;;;;;;0.26;66.63;99653.97;5051068;28;20116;-51
2022/01/21 00:03:28;;;;;;;42.10;20.13;;;;;;;0.16;64.95;99653.97;5050818;28;20020;-51
2022/01/21 00:05:53;;;;;;;38.35;18.90;;;;;;;0.09;66.14;99647.63;5050253;28;20036;-50
2022/01/21 00:08:19;;;;;;;38.88;18.63;;;;;;;0.05;65.82;99659.34;5050792;28;20053;-49
2022/01/21 00:10:44;;;;;;;54.45;23.98;;;;;;;-0.04;66.02;99661.84;5050657;28;20440;-52
2022/01/21 00:13:24;;;;;;;47.40;23.33;;;;;;;-0.07;65.49;99662.09;5050355;28;20025;-53
2022/01/21 00:15:49;;;;;;;58.13;25.52;;;;;;;-0.16;66.66;99668.16;5050651;28;20086;-50
2022/01/21 00:18:15;;;;;;;62.45;28.27;;;;;;;-0.05;66.83;99669.81;5050565;28;20037;-49
2022/01/21 00:31:36;;;;;;;81.13;33.58;;;;;;;0.12;65.53;99668.31;5051087;28;20028;-49
2022/01/21 00:34:02;;;;;;;80.93;34.38;;;;;;;0.12;65.71;99666.50;5051083;28;20024;-52
2022/01/21 00:36:27;;;;;;;76.15;32.22;;;;;;;0.06;67.25;99661.84;5051124;28;20025;-51
2022/01/21 00:38:55;;;;;;;77.90;32.85;;;;;;;0.15;67.00;99662.78;5050956;28;20473;-51
2022/01/21 00:41:25;;;;;;;77.40;33.47;;;;;;;0.22;65.58;99635.09;5050670;28;20108;-50
2022/01/21 00:43:50;;;;;;;;;;;;;;;0.30;67.63;99642.25;5051082;28;20036;-52
2022/01/21 00:46:15;;;;;;;77.00;32.20;;;;;;;0.63;65.63;99648.81;5051033;28;19908;-52
2022/01/21 00:48:41;;;;;;;75.88;32.90;;;;;;;0.58;65.79;99641.38;5050994;28;20333;-50
2022/01/21 00:51:06;;;;;;;76.20;34.58;;;;;;;0.45;63.45;99637.41;5050642;28;20116;-49
2022/01/21 00:53:32;;;;;;;84.82;33.50;;;;;;;0.66;63.74;99626.75;5050696;28;20071;-49
2022/01/21 00:55:58;;;;;;;71.22;33.08;;;;;;;0.67;64.98;99618.75;5050859;28;20113;-50
2022/01/21 00:58:23;;;;;;;79.00;34.30;;;;;;;0.45;65.32;99626.94;5049747;28;20052;-48
2022/01/21 01:00:49;;;;;;;70.57;31.20;;;;;;;0.57;65.60;99616.16;5051410;28;20086;-49
2022/01/21 01:03:15;;;;;;;77.80;33.95;;;;;;;0.51;64.14;99616.72;5051305;28;20108;-48
2022/01/21 01:05:40;;;;;;;69.65;30.77;;;;;;;0.55;63.47;99614.63;5051549;28;20090;-52
2022/01/21 01:08:06;;;;;;;73.72;31.85;;;;;;;0.56;65.28;99617.13;5051389;28;20052;-51
2022/01/21 01:21:24;;;;;;;60.63;26.08;;;;;;;0.50;67.06;99616.88;5050832;28;20031;-52
2022/01/21 01:29:18;;;;;;;46.38;22.08;;;;;;;0.24;65.62;99596.50;5051037;28;20039;-51
2022/01/21 01:31:44;;;;;;;39.35;18.50;;;;;;;0.23;67.23;99610.59;5050747;28;20021;-49
2022/01/21 01:34:09;;;;;;;45.08;18.88;;;;;;;0.31;67.99;99615.13;5051017;28;20052;-51
2022/01/21 01:36:35;;;;;;;39.55;18.30;;;;;;;0.22;66.35;99618.56;5050587;28;20044;-50
2022/01/21 01:39:15;;;;;;;37.67;17.95;;;;;;;0.10;67.72;99636.22;5050549;28;20190;-50
2022/01/21 01:41:58;;;;;;;50.33;19.00;;;;;;;0.23;66.94;99634.16;5050750;28;20074;-48
2022/01/21 01:49:51;;;;;;;39.92;17.52;;;;;;;0.47;67.57;99657.25;5050865;28;20472;-49
2022/01/21 01:52:17;;;;;;;38.42;17.38;;;;;;;0.56;67.18;99659.03;5050561;28;20025;-50
2022/01/21 01:54:51;;;;;;;39.75;18.27;;;;;;;0.69;65.57;99653.47;5050699;28;20100;-50
2022/01/21 01:57:16;;;;;;;44.22;19.88;;;;;;;0.70;66.62;99649.06;5050620;28;20025;-51
2022/01/21 01:59:42;;;;;;;35.55;17.33;;;;;;;0.72;67.69;99647.97;5050600;28;20318;-48
2022/01/21 02:02:14;;;;;;;37.00;18.10;;;;;;;0.72;65.33;99641.88;5050805;28;20059;-49
2022/01/21 02:04:41;;;;;;;36.63;17.85;;;;;;;0.77;67.76;99650.97;5050260;28;20029;-51
2022/01/21 02:07:06;;;;;;;40.30;18.30;;;;;;;0.78;65.29;99655.25;5050698;28;20053;-51
2022/01/21 02:09:32;;;;;;;38.47;19.50;;;;;;;0.62;64.59;99636.69;5050691;28;20091;-47
2022/01/21 02:11:57;;;;;;;42.58;19.65;;;;;;;0.75;64.86;99662.56;5048540;28;20358;-50
2022/01/21 02:14:28;;;;;;;42.35;20.30;;;;;;;0.67;66.36;99671.13;5050169;28;20044;-51
2022/01/21 02:22:13;;;;;;;40.45;17.25;;;;;;;0.70;65.53;99655.13;5050328;28;20036;-52
2022/01/21 02:24:49;;;;;;;38.22;17.00;;;;;;;0.71;66.41;99663.81;5050244;28;20444;-51
2022/01/21 02:27:14;;;;;;;34.90;16.50;;;;;;;0.59;65.67;99671.00;5052977;28;20067;-51
2022/01/21 02:29:46;;;;;;;35.00;16.23;;;;;;;0.71;66.17;99677.75;5054245;28;20056;-50
2022/01/21 02:32:12;;;;;;;38.30;16.80;;;;;;;0.72;66.31;99681.19;5054310;28;20158;-50
2022/01/21 02:34:38;;;;;;;34.95;16.73;;;;;;;0.75;66.05;99679.09;5053983;28;20503;-50
2022/01/21 02:37:04;;;;;;;34.70;17.27;;;;;;;0.72;68.20;99662.84;5054167;28;20095;-50
2022/01/21 02:39:29;;;;;;;36.75;16.17;;;;;;;0.69;67.82;99661.34;5053840;28;20025;-52
2022/01/21 02:41:55;;;;;;;31.23;14.88;;;;;;;0.86;68.30;99672.06;5053504;28;20032;-51
2022/01/21 02:44:20;;;;;;;33.35;15.90;;;;;;;0.38;66.60;99665.94;5052428;28;20028;-49
2022/01/21 02:46:47;;;;;;;38.00;16.05;;;;;;;0.62;68.41;99667.28;5053782;28;20044;-51
2022/01/21 02:49:12;;;;;;;33.85;15.25;;;;;;;0.74;66.16;99669.59;5053685;28;20220;-51
2022/01/21 02:51:38;;;;;;;34.72;14.57;;;;;;;0.87;67.04;99674.50;5053588;28;20028;-51
2022/01/21 02:54:04;;;;;;;31.75;14.63;;;;;;;0.86;67.00;99664.19;5053579;28;20468;-52
2022/01/21 02:56:30;;;;;;;30.42;14.57;;;;;;;0.90;65.27;99660.31;5053517;28;20098;-49
2022/01/21 02:58:55;;;;;;;29.08;14.20;;;;;;;1.04;64.29;99659.03;5052877;28;20399;-49
2022/01/21 03:01:21;;;;;;;31.63;14.60;;;;;;;1.14;64.37;99651.94;5053381;28;20075;-51
2022/01/21 03:03:47;;;;;;;28.55;14.35;;;;;;;1.03;64.00;99647.72;5053122;28;20029;-51
2022/01/21 03:06:16;;;;;;;31.05;15.23;;;;;;;1.12;63.97;99641.63;5053489;28;20044;-52
2022/01/21 03:08:43;;;;;;;28.95;14.35;;;;;;;1.39;62.44;99637.34;5053156;28;20056;-52
2022/01/21 03:11:08;;;;;;;31.20;14.75;;;;;;;1.39;63.27;99632.09;5053210;28;20175;-49
2022/01/21 03:13:34;;;;;;;30.95;14.25;;;;;;;1.79;62.39;99625.63;5053060;28;20472;-49
2022/01/21 03:15:59;;;;;;;35.45;15.55;;;;;;;1.59;64.15;99631.97;5053309;28;20132;-50
2022/01/21 03:18:25;;;;;;;54.58;21.42;;;;;;;1.69;62.47;99641.41;5053400;28;20032;-52
2022/01/21 03:20:50;;;;;;;39.65;18.48;;;;;;;1.62;61.82;99627.25;5053240;28;20682;-50
2022/01/21 03:23:18;;;;;;;32.45;15.98;;;;;;;1.55;61.08;99640.13;5052892;28;20104;-48
2022/01/21 03:25:46;;;;;;;33.25;15.30;;;;;;;1.33;61.64;99640.53;5052940;28;20044;-49
2022/01/21 03:28:12;;;;;;;32.22;15.40;;;;;;;1.20;62.07;99637.41;5052898;28;20029;-49
2022/01/21 03:30:37;;;;;;;33.83;15.85;;;;;;;1.41;64.21;99632.78;5051619;28;20021;-47
2022/01/21 03:33:03;;;;;;;31.80;15.23;;;;;;;1.57;64.54;99632.13;5053149;28;20032;-48
2022/01/21 03:35:29;;;;;;;30.88;15.00;;;;;;;1.54;62.17;99627.16;5052880;28;20036;-49
2022/01/21 03:37:54;;;;;;;31.38;15.23;;;;;;;1.68;62.81;99631.91;5052433;28;20028;-52
2022/01/21 03:40:19;;;;;;;28.17;14.20;;;;;;;1.69;61.17;99616.97;5052815;28;20457;-51
2022/01/21 03:42:45;;;;;;;30.10;15.20;;;;;;;1.69;61.24;99622.22;5052701;28;20540;-50
2022/01/21 03:45:12;;;;;;;34.17;16.25;;;;;;;1.89;63.14;99636.84;5052604;28;20040;-50
2022/01/21 03:47:37;;;;;;;35.63;16.85;;;;;;;1.69;60.52;99645.84;5052599;28;20467;-49
2022/01/21 03:50:21;;;;;;;32.03;15.85;;;;;;;1.70;60.88;99639.63;5052292;28;20473;-49
2022/01/21 03:52:46;;;;;;;29.67;15.13;;;;;;;1.81;61.34;99633.31;5052648;28;20029;-51
2022/01/21 03:55:12;;;;;;;33.30;15.13;;;;;;;1.69;60.21;99633.53;5052708;28;20404;-48
2022/01/21 03:57:37;;;;;;;31.45;15.38;;;;;;;1.86;59.54;99624.03;5052466;28;20377;-48
2022/01/21 04:00:08;;;;;;;31.83;14.95;;;;;;;2.01;60.33;99631.38;5052630;28;20484;-52
2022/01/21 04:02:33;;;;;;;30.77;13.93;;;;;;;2.17;61.00;99636.78;5052494;28;20389;-51
2022/01/21 04:04:58;;;;;;;32.83;15.02;;;;;;;2.30;59.96;99639.84;5052193;28;20025;-52
2022/01/21 04:07:24;;;;;;;33.72;14.82;;;;;;;2.29;59.87;99642.63;5051983;28;20110;-50
2022/01/21 04:09:49;;;;;;;35.08;14.55;;;;;;;2.72;57.58;99643.56;5051958;28;20107;-49
2022/01/21 04:12:15;;;;;;;31.02;14.60;;;;;;;2.76;59.24;99644.06;5052051;28;20016;-51
2022/01/21 04:14:41;;;;;;;29.58;15.40;;;;;;;2.79;58.73;99649.84;5052025;28;20025;-51
2022/01/21 04:17:07;;;;;;;29.48;14.65;;;;;;;2.54;57.98;99639.19;5052359;28;20032;-51
2022/01/21 04:19:33;;;;;;;32.22;14.77;;;;;;;2.17;57.96;99617.56;5051912;28;20024;-50
2022/01/21 04:21:58;;;;;;;34.63;14.20;;;;;;;2.68;57.80;99621.19;5051748;28;20037;-49
2022/01/21 04:24:24;;;;;;;26.33;13.23;;;;;;;2.73;58.14;99617.13;5052194;28;20039;-49
2022/01/21 04:26:49;;;;;;;31.95;13.93;;;;;;;2.51;59.74;99617.63;5051973;28;20420;-52
2022/01/21 04:29:15;;;;;;;33.03;15.00;;;;;;;2.28;60.85;99605.00;5051746;28;20043;-49
2022/01/21 04:31:40;;;;;;;34.50;16.83;;;;;;;2.52;59.41;99606.16;5051653;28;20028;-51
2022/01/21 04:34:06;;;;;;;36.95;17.02;;;;;;;2.40;60.25;99597.72;5051481;28;20020;-51
2022/01/21 04:36:31;;;;;;;38.28;17.70;;;;;;;2.15;60.79;99589.66;5051548;28;20077;-49
2022/01/21 04:38:59;;;;;;;78.68;35.47;;;;;;;2.34;62.07;99593.91;5051291;28;20025;-51
2022/01/21 04:49:27;;;;;;;36.95;16.17;;;;;;;1.96;61.35;99639.69;5049862;28;20132;-52
2022/01/21 04:52:02;;;;;;;33.78;16.92;;;;;;;1.49;63.41;99650.41;5050067;28;20017;-51
2022/01/21 04:54:29;;;;;;;42.22;17.40;;;;;;;1.36;64.35;99650.75;5049767;28;20087;-48
2022/01/21 04:56:54;;;;;;;40.20;17.40;;;;;;;1.30;64.30;99659.19;5049610;28;20025;-48
2022/01/21 04:59:20;;;;;;;38.03;18.17;;;;;;;1.60;65.33;99667.72;5050107;28;20025;-48
2022/01/21 05:01:45;;;;;;;41.92;19.35;;;;;;;1.62;63.68;99669.22;5049757;28;20025;-49
2022/01/21 05:04:11;;;;;;;50.08;20.92;;;;;;;1.38;64.74;99675.00;5049589;28;20032;-50
2022/01/21 05:06:37;;;;;;;46.35;21.73;;;;;;;1.21;65.33;99676.59;5050165;28;20020;-50
2022/01/21 05:09:02;;;;;;;45.30;20.65;;;;;;;1.21;65.28;99686.28;5050033;28;20053;-51
2022/01/21 05:11:28;;;;;;;43.70;20.33;;;;;;;1.17;66.50;99677.88;5049763;28;20345;-49
2022/01/21 05:13:59;;;;;;;40.92;19.08;;;;;;;1.19;65.46;99677.72;5049770;28;20024;-50
2022/01/21 05:18:56;;;;;;;41.78;19.50;;;;;;;1.45;65.51;99691.81;5050436;28;20021;-51
2022/01/21 05:21:22;;;;;;;40.87;19.30;;;;;;;1.50;66.82;99710.56;5050479;28;20122;-49
2022/01/21 05:23:47;;;;;;;43.15;18.88;;;;;;;1.61;66.74;99708.72;5048453;28;20477;-52
2022/01/21 05:26:13;;;;;;;43.30;20.40;;;;;;;1.49;66.55;99702.84;5049660;28;20025;-49
2022/01/21 05:28:38;;;;;;;44.47;20.05;;;;;;;1.65;67.80;99713.50;5030206;28;20018;-52
2022/01/21 05:31:04;;;;;;;43.13;20.55;;;;;;;1.83;67.81;99731.09;5030247;28;20037;-51
2022/01/21 05:33:29;;;;;;;36.97;19.10;;;;;;;1.61;65.45;99727.09;5033555;28;20021;-52
2022/01/21 05:35:55;;;;;;;35.13;17.65;;;;;;;1.50;66.01;99733.34;5037878;28;20092;-50
2022/01/21 05:38:20;;;;;;;39.08;18.55;;;;;;;1.75;65.69;99740.53;5030157;28;20029;-50
2022/01/21 05:40:46;;;;;;;45.00;21.35;;;;;;;1.67;65.60;99739.63;5029410;28;20028;-51
2022/01/21 05:43:12;;;;;;;42.47;20.13;;;;;;;1.68;67.17;99754.41;5030056;28;20078;-52
2022/01/21 05:48:22;;;;;;;54.55;23.00;;;;;;;1.56;68.04;99757.22;5029777;28;20041;-49
2022/01/21 05:50:47;;;;;;;46.42;21.90;;;;;;;1.64;68.62;99766.97;5029161;28;20029;-51
2022/01/21 05:53:13;;;;;;;46.88;22.27;;;;;;;1.74;69.26;99777.41;5028016;28;20465;-52
2022/01/21 05:55:41;;;;;;;50.47;22.55;;;;;;;1.91;70.91;99778.44;5029353;28;20025;-50
2022/01/21 05:58:08;;;;;;;46.45;21.80;;;;;;;2.03;69.82;99784.31;5030083;28;20029;-56
2022/01/21 06:00:34;;;;;;;42.53;21.08;;;;;;;1.93;70.68;99790.44;5031288;28;20032;-51
2022/01/21 06:02:59;;;;;;;54.10;30.17;;;;;;;1.85;72.70;99792.97;5033939;28;20061;-53
2022/01/21 06:05:25;;;;;;;49.80;23.33;;;;;;;1.98;73.55;99804.91;5044887;28;20428;-50
2022/01/21 06:07:50;;;;;;;45.13;21.75;;;;;;;2.14;73.31;99813.81;5053986;28;20017;-50
2022/01/21 06:10:16;;;;;;;40.72;20.50;;;;;;;2.36;73.05;99819.59;5053524;28;20025;-52
2022/01/21 06:12:41;;;;;;;36.55;19.70;;;;;;;2.42;74.44;99816.41;5053881;28;20409;-51
2022/01/21 06:15:07;;;;;;;38.83;19.17;;;;;;;2.53;74.13;99823.22;5053270;28;20397;-53
2022/01/21 06:17:34;;;;;;;34.17;17.05;;;;;;;2.58;74.23;99834.13;5052128;28;20519;-51
2022/01/21 06:19:59;;;;;;;34.47;17.70;;;;;;;2.47;75.85;99835.16;5053837;28;20040;-53
2022/01/21 06:22:25;;;;;;;34.58;17.27;;;;;;;2.35;76.77;99842.44;5053604;28;20393;-52
2022/01/21 06:24:53;;;;;;;34.63;16.52;;;;;;;2.52;77.37;99839.97;5053327;28;20025;-51
2022/01/21 06:27:25;;;;;;;35.55;17.52;;;;;;;2.55;78.05;99844.91;5053533;28;20131;-50
2022/01/21 06:29:51;;;;;;;37.40;18.02;;;;;;;2.62;78.88;99853.03;5053589;28;20017;-52
2022/01/21 06:32:17;;;;;;;42.47;21.13;;;;;;;2.69;80.30;99856.72;5053566;28;20032;-54
2022/01/21 06:34:42;;;;;;;40.28;18.55;;;;;;;2.78;78.53;99858.47;5053560;28;20107;-54
2022/01/21 06:37:07;;;;;;;47.25;23.08;;;;;;;2.87;79.19;99860.16;5053625;28;20082;-50
2022/01/21 06:39:33;;;;;;;34.17;17.77;;;;;;;2.80;79.57;99861.78;5053915;28;20459;-51
2022/01/21 06:41:58;;;;;;;33.30;16.60;;;;;;;2.71;82.81;99875.81;5053502;28;20496;-53
2022/01/21 06:44:24;;;;;;;30.50;14.80;;;;;;;2.68;81.42;99879.53;5053212;28;20406;-50
2022/01/21 06:46:49;;;;;;;28.05;15.20;;;;;;;2.71;82.91;99889.75;5053175;28;20020;-50
2022/01/21 06:49:15;;;;;;;25.38;14.68;;;;;;;2.60;83.08;99895.22;5053098;28;20025;-50
2022/01/21 06:51:40;;;;;;;33.05;14.90;;;;;;;2.74;83.55;99886.84;5053426;28;20029;-51
2022/01/21 06:54:06;;;;;;;26.05;13.95;;;;;;;2.78;84.94;99892.63;5053127;28;20025;-49
2022/01/21 06:56:31;;;;;;;23.10;12.68;;;;;;;2.94;84.38;99895.41;5052880;28;20075;-50
2022/01/21 06:58:57;;;;;;;21.95;12.40;;;;;;;3.14;82.52;99895.22;5052370;28;20138;-50
2022/01/21 07:01:23;;;;;;;17.02;9.43;;;;;;;2.91;83.64;99900.13;5051392;28;20017;-51
2022/01/21 07:03:48;;;;;;;15.60;8.68;;;;;;;2.83;84.29;99905.31;5052841;28;20073;-50
2022/01/21 07:06:13;;;;;;;14.05;7.80;;;;;;;2.62;84.42;99901.16;5053045;28;20338;-51
2022/01/21 07:08:39;;;;;;;13.60;6.88;;;;;;;2.69;84.00;99910.13;5052776;28;20048;-50
2022/01/21 07:11:04;;;;;;;12.90;6.90;;;;;;;2.53;84.82;99915.19;5052564;28;20021;-50
2022/01/21 07:13:30;;;;;;;10.98;5.80;;;;;;;2.68;83.92;99920.75;5051497;28;20021;-50
2022/01/21 07:15:58;;;;;;;10.82;5.90;;;;;;;2.57;84.73;99929.69;5052433;28;20436;-50
2022/01/21 07:18:24;;;;;;;14.30;7.07;;;;;;;2.59;84.01;99929.53;5052573;28;20500;-50
2022/01/21 07:20:49;;;;;;;28.75;15.27;;;;;;;2.69;84.63;99925.88;5052616;28;20477;-50
2022/01/21 07:23:15;;;;;;;10.43;5.82;;;;;;;2.47;84.16;99931.53;5052548;28;20021;-49
2022/01/21 07:25:40;;;;;;;11.00;5.28;;;;;;;2.21;85.39;99934.00;5052587;28;20020;-49
2022/01/21 07:28:06;;;;;;;9.20;5.18;;;;;;;2.10;84.89;99945.53;5052350;28;20083;-50
2022/01/21 07:30:31;;;;;;;9.98;5.82;;;;;;;2.12;84.90;99947.03;5052210;28;20025;-50
2022/01/21 07:32:56;;;;;;;9.40;5.38;;;;;;;2.09;85.31;99967.50;5052422;28;20032;-50
2022/01/21 07:35:22;;;;;;;9.07;4.63;;;;;;;2.09;85.94;99973.56;5052342;28;20116;-50
2022/01/21 07:37:47;;;;;;;7.38;4.35;;;;;;;2.24;84.03;99967.88;5052257;28;20091;-49
2022/01/21 07:40:13;;;;;;;5.97;3.80;;;;;;;2.10;85.03;99979.66;5052140;28;20033;-52
2022/01/21 07:42:38;;;;;;;8.00;4.07;;;;;;;2.06;84.96;99975.69;5052128;28;20028;-50
2022/01/21 07:45:04;;;;;;;7.43;4.13;;;;;;;2.19;85.00;99989.31;5050846;28;20526;-51
2022/01/21 07:47:30;;;;;;;7.07;3.83;;;;;;;2.06;85.32;99988.81;5051827;28;20090;-51
2022/01/21 07:49:55;;;;;;;5.60;3.83;;;;;;;2.01;84.44;99991.00;5052156;28;20044;-50
2022/01/21 07:52:20;;;;;;;6.72;3.80;;;;;;;2.08;84.89;99989.47;5050531;28;20469;-50
2022/01/21 07:54:46;;;;;;;7.43;3.55;;;;;;;2.15;83.82;99990.53;5051841;28;20036;-51
2022/01/21 07:57:12;;;;;;;6.82;4.05;;;;;;;2.08;83.81;99987.69;5051746;28;20021;-50
2022/01/21 07:59:38;;;;;;;5.82;3.80;;;;;;;2.22;83.95;99983.75;5052188;28;20500;-49
2022/01/21 08:02:04;;;;;;;6.28;3.90;;;;;;;2.20;84.96;99990.94;5051665;28;20032;-50
2022/01/21 08:04:29;;;;;;;5.95;3.97;;;;;;;2.40;83.78;99981.22;5051926;28;20412;-53
2022/01/21 08:06:55;;;;;;;7.93;4.40;;;;;;;2.33;83.31;99986.22;5051836;28;20032;-52
2022/01/21 08:09:25;;;;;;;9.55;5.25;;;;;;;2.12;83.83;99982.97;5051891;28;20110;-49
2022/01/21 08:11:53;;;;;;;11.52;6.00;;;;;;;2.20;86.12;99988.31;5051881;28;20048;-49
2022/01/21 08:14:19;;;;;;;11.45;6.15;;;;;;;2.17;85.05;99991.25;5051416;28;20024;-50
2022/01/21 08:16:45;;;;;;;11.20;5.85;;;;;;;2.11;85.58;99992.66;5050259;28;20025;-52
2022/01/21 08:19:11;;;;;;;10.10;5.45;;;;;;;2.35;84.80;99994.75;5051719;28;20044;-51
2022/01/21 08:21:36;;;;;;;5.75;3.63;;;;;;;2.23;85.58;99992.47;5051572;28;20082;-50
2022/01/21 08:24:03;;;;;;;6.32;3.47;;;;;;;2.05;85.71;100000.25;5051082;28;20092;-51
2022/01/21 08:26:29;;;;;;;6.35;3.10;;;;;;;2.10;84.75;100003.28;5051478;28;20044;-52
2022/01/21 08:28:55;;;;;;;5.60;3.00;;;;;;;2.31;84.63;100003.91;5051270;28;20029;-52
2022/01/21 08:31:21;;;;;;;6.05;3.10;;;;;;;2.34;83.69;100010.66;5051087;28;20021;-51
2022/01/21 08:33:46;;;;;;;5.00;2.90;;;;;;;2.21;84.81;100018.88;5051194;28;20476;-50
2022/01/21 08:36:12;;;;;;;4.30;2.42;;;;;;;2.08;84.24;100018.38;5051446;28;20029;-50
2022/01/21 08:38:38;;;;;;;6.28;2.50;;;;;;;2.27;83.86;100031.44;5050946;28;20032;-50
2022/01/21 08:41:04;;;;;;;4.35;2.30;;;;;;;2.26;83.10;100035.03;5050814;28;20512;-52
2022/01/21 08:43:29;;;;;;;2.33;1.85;;;;;;;2.00;83.26;100031.34;5050814;28;20559;-47
2022/01/21 08:45:55;;;;;;;3.70;1.77;;;;;;;1.88;83.78;100046.44;5051041;28;20032;-52
2022/01/21 08:48:20;;;;;;;4.70;2.45;;;;;;;1.85;83.74;100047.53;5050978;28;20308;-55
2022/01/21 08:50:46;;;;;;;3.38;2.17;;;;;;;1.93;82.83;100039.78;5050725;28;20024;-54
2022/01/21 08:55:56;;;;;;;3.20;1.92;;;;;;;1.70;84.11;100048.94;5050862;28;20408;-53
2022/01/21 08:58:21;;;;;;;4.22;2.20;;;;;;;1.67;84.14;100054.44;5050611;28;20044;-52
2022/01/21 09:00:47;;;;;;;3.22;1.98;;;;;;;1.83;84.90;100067.00;5050782;28;20032;-52
2022/01/21 09:03:12;;;;;;;4.10;2.47;;;;;;;1.81;83.92;100059.28;5050631;28;20021;-49
2022/01/21 09:05:38;;;;;;;3.80;2.25;;;;;;;1.67;83.62;100064.94;5050835;28;20021;-50
2022/01/21 09:08:03;;;;;;;5.18;2.50;;;;;;;1.68;84.05;100069.25;5050609;28;20060;-53
2022/01/21 09:10:29;;;;;;;4.25;2.60;;;;;;;1.49;85.60;100060.38;5048398;28;20025;-52
2022/01/21 09:12:54;;;;;;;4.78;2.83;;;;;;;1.55;84.42;100069.50;5049964;28;20024;-54
2022/01/21 09:15:24;;;;;;;5.55;2.72;;;;;;;1.73;83.07;100074.88;5050665;28;20021;-50
2022/01/21 09:17:50;;;;;;;6.25;3.13;;;;;;;1.65;83.65;100072.13;5049012;28;20024;-52
2022/01/21 09:20:15;;;;;;;4.70;2.75;;;;;;;1.59;82.96;100064.81;5050598;28;20102;-53
2022/01/21 09:22:41;;;;;;;5.60;3.00;;;;;;;1.63;82.01;100074.06;5050087;28;20025;-52
2022/01/21 09:25:08;;;;;;;4.07;2.45;;;;;;;1.70;82.10;100067.31;5050550;28;20017;-53
2022/01/21 09:27:33;;;;;;;4.10;2.53;;;;;;;1.76;81.10;100062.31;5050403;28;20033;-52
2022/01/21 09:29:59;;;;;;;5.32;2.83;;;;;;;1.92;81.84;100063.56;5050136;28;20075;-52
2022/01/21 09:32:24;;;;;;;4.22;2.80;;;;;;;2.10;79.92;100047.94;5050428;28;20029;-50
2022/01/21 09:34:50;;;;;;;5.30;2.58;;;;;;;1.99;80.28;100042.84;5049617;28;20056;-49
2022/01/21 09:37:15;;;;;;;4.32;2.60;;;;;;;1.89;79.38;100020.03;5049946;28;20029;-51
2022/01/21 09:39:41;;;;;;;3.72;2.55;;;;;;;2.33;78.74;100043.16;5049950;28;20025;-49
2022/01/21 09:42:07;;;;;;;3.80;2.40;;;;;;;2.19;79.75;100040.97;5050260;28;20536;-50
2022/01/21 09:44:32;;;;;;;4.80;2.70;;;;;;;2.35;78.31;100034.16;5050341;28;20415;-53
2022/01/21 09:47:00;;;;;;;5.45;2.53;;;;;;;2.08;78.25;100027.06;5048717;28;20426;-52
2022/01/21 09:49:26;;;;;;;4.28;2.60;;;;;;;2.15;77.98;100024.69;5049989;28;20441;-52
2022/01/21 09:52:03;;;;;;;5.07;2.75;;;;;;;2.23;75.92;100018.72;5050012;28;20162;-50
2022/01/21 09:54:33;;;;;;;4.10;2.30;;;;;;;2.24;75.91;100015.13;5050072;28;20040;-52
2022/01/21 09:56:59;;;;;;;6.40;2.55;;;;;;;2.22;76.13;100009.19;5049746;28;20075;-53
2022/01/21 09:59:26;;;;;;;3.78;2.40;;;;;;;2.44;74.87;100000.97;5049532;28;20543;-54
2022/01/21 10:01:54;;;;;;;3.65;2.15;;;;;;;2.39;74.85;100000.56;5049686;28;20498;-52
2022/01/21 10:04:21;;;;;;;3.50;2.33;;;;;;;2.42;74.39;100000.28;5049798;28;20029;-49
2022/01/21 10:06:46;;;;;;;4.20;1.83;;;;;;;2.25;73.92;99990.53;5049756;28;20051;-54
2022/01/21 10:09:13;;;;;;;4.05;2.20;;;;;;;2.25;74.70;99985.28;5049930;28;20049;-52
2022/01/21 10:11:38;;;;;;;4.18;2.38;;;;;;;2.49;73.80;99984.75;5049972;28;20036;-52
2022/01/21 10:14:04;;;;;;;3.95;2.10;;;;;;;2.43;73.71;99998.47;5050148;28;20040;-51
2022/01/21 10:16:29;;;;;;;5.50;2.55;;;;;;;2.44;73.10;99985.22;5049925;28;20090;-51
2022/01/21 10:19:03;;;;;;;4.63;2.50;;;;;;;2.49;72.33;99987.38;5050173;28;20021;-51
2022/01/21 10:21:39;;;;;;;4.07;2.25;;;;;;;2.49;71.45;99982.13;5049396;28;20025;-49
2022/01/21 10:24:12;;;;;;;4.35;2.10;;;;;;;2.35;71.15;99988.69;5049382;28;20027;-49
2022/01/21 10:26:49;;;;;;;3.15;1.98;;;;;;;2.62;67.92;99984.44;5049394;28;20485;-51
2022/01/21 10:29:15;;;;;;;4.03;2.10;;;;;;;2.60;67.67;99992.44;5049657;28;20029;-49
2022/01/21 10:31:52;;;;;;;4.63;2.17;;;;;;;2.74;66.89;99989.34;5049973;28;20021;-52
2022/01/21 10:34:23;;;;;;;7.72;2.08;;;;;;;2.57;69.13;99998.03;5049478;28;20025;-49
2022/01/21 10:36:54;;;;;;;3.35;1.80;;;;;;;2.50;70.28;99986.44;5050014;28;20487;-50
2022/01/21 10:39:29;;;;;;;2.45;1.67;;;;;;;2.47;71.31;99982.28;5049626;28;20043;-52
2022/01/21 10:41:56;;;;;;;4.20;2.10;;;;;;;2.45;71.43;99983.41;5048375;28;20251;-50
2022/01/21 10:44:21;;;;;;;4.55;2.10;;;;;;;2.49;71.90;99985.56;5049673;28;20485;-49
2022/01/21 10:47:07;;;;;;;2.95;1.70;;;;;;;2.37;71.47;99984.13;5049802;28;20025;-51
2022/01/21 10:49:33;;;;;;;2.97;1.73;;;;;;;2.34;71.03;99977.38;5053508;28;20100;-53
2022/01/21 10:51:59;;;;;;;2.95;1.85;;;;;;;2.33;70.59;99965.19;5053325;28;20108;-52
2022/01/21 10:54:29;;;;;;;3.70;1.85;;;;;;;2.33;69.73;99972.25;5053316;28;20025;-52
2022/01/21 10:57:08;;;;;;;3.45;1.55;;;;;;;2.29;70.34;99968.25;5052934;28;20037;-50
2022/01/21 10:59:48;;;;;;;3.83;1.98;;;;;;;2.30;70.14;99970.75;5052873;28;20040;-51
2022/01/21 11:02:14;;;;;;;;;;;;;;;2.21;69.84;99974.25;5053603;28;20484;-52
2022/01/21 11:04:43;;;;;;;3.25;1.98;;;;;;;2.28;68.81;99970.03;5052970;28;20021;-50
2022/01/21 11:07:11;;;;;;;3.65;1.58;;;;;;;2.17;68.26;99969.41;5053359;28;20028;-49
2022/01/21 11:09:38;;;;;;;2.85;1.80;;;;;;;2.36;67.77;99964.06;5052776;28;20432;-51
2022/01/21 11:12:16;;;;;;;4.15;2.08;;;;;;;2.40;67.03;99964.59;5052708;28;20086;-48
2022/01/21 11:15:04;;;;;;;3.63;1.70;;;;;;;2.45;67.57;99963.19;5052278;28;20549;-48
2022/01/21 11:17:30;;;;;;;3.22;1.88;;;;;;;2.35;66.97;99965.88;5052400;28;20028;-52
2022/01/21 11:20:16;;;;;;;2.75;2.00;;;;;;;2.78;65.76;99957.50;5051594;28;20181;-51
2022/01/21 11:22:54;;;;;;;3.05;1.85;;;;;;;2.50;64.99;99954.91;5052623;28;20108;-52
2022/01/21 11:25:42;;;;;;;3.40;2.10;;;;;;;2.58;64.74;99957.63;5052456;28;20036;-48
2022/01/21 11:28:09;;;;;;;3.95;2.05;;;;;;;2.49;65.10;99958.50;5049000;28;20040;-53
2022/01/21 11:30:34;;;;;;;4.03;1.67;;;;;;;2.61;64.55;99954.69;5052268;28;20090;-51
2022/01/21 11:33:00;;;;;;;3.45;1.73;;;;;;;2.59;62.99;99953.19;5052400;28;20025;-53
2022/01/21 11:35:28;;;;;;;2.75;1.50;;;;;;;2.57;63.65;99942.84;5052630;28;20021;-50
2022/01/21 11:37:54;;;;;;;2.30;1.65;;;;;;;2.88;62.21;99948.59;5052419;28;20021;-50
2022/01/21 11:40:21;;;;;;;5.90;2.30;;;;;;;3.05;61.81;99944.31;5051105;28;20041;-50
2022/01/21 11:42:46;;;;;;;3.78;2.45;;;;;;;2.91;61.55;99929.91;5050537;28;20051;-49
2022/01/21 11:45:30;;;;;;;5.72;2.70;;;;;;;2.78;62.92;99934.69;5034191;28;20476;-51
2022/01/21 11:50:38;;;;;;;4.38;2.42;;;;;;;2.97;61.65;99933.72;5052363;28;20024;-50
2022/01/21 11:53:05;;;;;;;3.67;2.00;;;;;;;3.06;60.51;99938.06;5051890;28;20078;-51
2022/01/21 11:55:45;;;;;;;3.83;2.10;;;;;;;3.12;60.56;99937.50;5052364;28;20112;-49
2022/01/21 11:58:11;;;;;;;6.20;3.10;;;;;;;3.35;60.90;99925.66;5051594;28;20029;-50
2022/01/21 12:00:36;;;;;;;6.90;3.25;;;;;;;3.32;61.00;99922.34;5052029;28;20083;-50
2022/01/21 12:03:02;;;;;;;4.40;2.25;;;;;;;3.14;60.78;99913.66;5052337;28;20029;-51
2022/01/21 12:05:27;;;;;;;3.50;2.17;;;;;;;2.97;61.41;99915.31;5051676;28;20028;-52
2022/01/21 12:07:53;;;;;;;5.20;2.50;;;;;;;3.00;60.68;99914.19;5051813;28;20032;-48
2022/01/21 12:10:21;;;;;;;5.38;2.80;;;;;;;3.16;60.45;99910.88;5051578;28;20032;-50
2022/01/21 12:12:59;;;;;;;5.63;2.83;;;;;;;3.00;60.09;99912.38;5051407;28;20104;-49
2022/01/21 12:15:27;;;;;;;5.65;2.80;;;;;;;3.04;60.27;99908.47;5051473;28;20143;-49
2022/01/21 12:18:08;;;;;;;7.65;2.63;;;;;;;2.99;59.18;99905.50;5051643;28;20149;-51
2022/01/21 12:20:34;;;;;;;3.38;2.00;;;;;;;2.93;59.36;99908.69;5052108;28;20103;-51
2022/01/21 12:23:09;;;;;;;4.82;2.30;;;;;;;3.10;57.87;99900.00;5051260;28;20028;-50
2022/01/21 12:25:35;;;;;;;6.85;2.40;;;;;;;3.17;58.14;99909.91;5049427;28;20025;-38
2022/01/21 12:28:14;;;;;;;3.58;2.22;;;;;;;2.97;57.24;99914.47;5051265;28;20441;-37